createdAt,value
2018-06-13T00:00:23.161Z,14.10
2018-06-13T00:02:57.488Z,14.10
2018-06-13T00:05:33.385Z,14.10
2018-06-13T00:08:07.669Z,14.20
2018-06-13T00:10:42.182Z,14.10
2018-06-13T00:13:26.405Z,14.10
2018-06-13T00:16:04.043Z,14.10
2018-06-13T00:18:38.217Z,14.00
2018-06-13T00:21:12.550Z,14.00
2018-06-13T00:23:51.547Z,14.00
2018-06-13T00:26:25.956Z,14.00
2018-06-13T00:29:00.777Z,14.00
2018-06-13T00:31:35.460Z,14.00
2018-06-13T00:34:09.690Z,14.00
2018-06-13T00:36:44.083Z,14.00
2018-06-13T00:39:18.344Z,14.00
2018-06-13T00:41:53.752Z,14.00
2018-06-13T00:44:27.973Z,14.00
2018-06-13T00:47:03.337Z,13.90
2018-06-13T00:49:37.685Z,13.90
2018-06-13T00:52:15.085Z,13.90
2018-06-13T00:54:50.644Z,13.80
2018-06-13T00:57:24.899Z,13.80
2018-06-13T00:59:59.208Z,13.90
2018-06-13T01:02:33.523Z,13.90
2018-06-13T01:05:07.762Z,13.80
2018-06-13T01:07:43.093Z,13.80
2018-06-13T01:10:17.563Z,13.80
2018-06-13T01:12:51.920Z,13.80
2018-06-13T01:15:26.281Z,13.70
2018-06-13T01:18:00.627Z,13.80
2018-06-13T01:20:36.110Z,13.70
2018-06-13T01:23:11.064Z,13.70
2018-06-13T01:25:45.401Z,13.70
2018-06-13T01:28:19.684Z,13.60
2018-06-13T01:30:54.137Z,13.60
2018-06-13T01:33:28.422Z,13.60
2018-06-13T01:36:02.995Z,13.60
2018-06-13T01:38:37.426Z,13.60
2018-06-13T01:41:11.876Z,13.60
2018-06-13T01:43:46.206Z,13.60
2018-06-13T01:46:20.554Z,13.60
2018-06-13T01:48:54.875Z,13.50
2018-06-13T01:51:33.579Z,13.50
2018-06-13T01:54:08.062Z,13.50
2018-06-13T01:56:42.545Z,13.50
2018-06-13T01:59:16.957Z,13.50
2018-06-13T02:01:51.344Z,13.40
2018-06-13T02:04:25.752Z,13.40
2018-06-13T02:07:00.137Z,13.40
2018-06-13T02:09:34.593Z,13.40
2018-06-13T02:12:08.834Z,13.50
2018-06-13T02:14:43.046Z,13.50
2018-06-13T02:17:17.444Z,13.50
2018-06-13T02:19:51.794Z,13.40
2018-06-13T02:22:26.097Z,13.40
2018-06-13T02:25:00.416Z,13.30
2018-06-13T02:27:35.669Z,13.30
2018-06-13T02:30:10.981Z,13.30
2018-06-13T02:32:45.297Z,13.20
2018-06-13T02:35:19.554Z,13.30
2018-06-13T02:37:53.911Z,13.20
2018-06-13T02:40:28.498Z,13.20
2018-06-13T02:43:03.067Z,13.20
2018-06-13T02:45:37.272Z,13.10
2018-06-13T02:48:11.579Z,13.10
2018-06-13T02:50:45.893Z,13.10
2018-06-13T02:53:20.316Z,13.10
2018-06-13T02:58:28.746Z,13.00
2018-06-13T03:01:03.157Z,13.10
2018-06-13T03:03:37.607Z,13.00
2018-06-13T03:06:11.960Z,13.00
2018-06-13T03:08:46.245Z,13.00
2018-06-13T03:11:20.689Z,12.90
2018-06-13T03:13:54.972Z,12.70
2018-06-13T03:16:29.323Z,12.60
2018-06-13T03:19:03.712Z,12.50
2018-06-13T03:21:38.160Z,12.60
2018-06-13T03:24:12.675Z,12.60
2018-06-13T03:26:47.142Z,12.60
2018-06-13T03:29:21.611Z,12.60
2018-06-13T03:31:55.936Z,12.70
2018-06-13T03:34:30.331Z,12.80
2018-06-13T03:37:04.784Z,12.80
2018-06-13T03:39:39.088Z,12.80
2018-06-13T03:42:13.672Z,12.80
2018-06-13T03:44:48.052Z,12.90
2018-06-13T03:47:22.445Z,13.00
2018-06-13T03:49:57.967Z,13.00
2018-06-13T03:52:32.150Z,13.00
2018-06-13T03:55:06.412Z,13.00
2018-06-13T03:57:41.475Z,13.00
2018-06-13T04:00:16.322Z,13.00
2018-06-13T04:02:50.693Z,12.90
2018-06-13T04:05:26.091Z,13.00
2018-06-13T04:08:01.105Z,13.00
2018-06-13T04:10:40.399Z,13.10
2018-06-13T04:13:17.128Z,13.00
2018-06-13T04:15:52.031Z,13.00
2018-06-13T04:18:26.723Z,13.00
2018-06-13T04:21:01.072Z,13.00
2018-06-13T04:23:37.000Z,13.00
2018-06-13T04:26:11.393Z,13.00
2018-06-13T04:28:46.871Z,13.10
2018-06-13T04:31:23.916Z,13.20
2018-06-13T04:33:58.300Z,13.20
2018-06-13T04:36:32.604Z,13.10
2018-06-13T04:39:09.060Z,13.10
2018-06-13T04:41:43.375Z,13.10
2018-06-13T04:44:18.676Z,13.10
2018-06-13T04:49:27.763Z,13.00
2018-06-13T04:52:02.013Z,13.00
2018-06-13T04:54:36.232Z,13.00
2018-06-13T04:57:10.531Z,13.10
2018-06-13T04:59:44.753Z,13.10
2018-06-13T05:02:18.916Z,13.00
2018-06-13T05:04:53.394Z,13.10
2018-06-13T05:07:27.629Z,13.20
2018-06-13T05:10:01.953Z,13.30
2018-06-13T05:12:36.390Z,13.40
2018-06-13T05:15:10.659Z,13.30
2018-06-13T05:17:44.892Z,13.30
2018-06-13T05:20:19.186Z,13.20
2018-06-13T05:22:53.577Z,13.20
2018-06-13T05:25:28.453Z,13.30
2018-06-13T05:28:03.065Z,13.40
2018-06-13T05:30:37.488Z,13.30
2018-06-13T05:33:11.931Z,13.40
2018-06-13T05:35:46.254Z,13.50
2018-06-13T05:38:20.645Z,13.50
2018-06-13T05:40:54.969Z,13.60
2018-06-13T05:43:29.325Z,13.70
2018-06-13T05:46:03.595Z,13.70
2018-06-13T05:48:37.929Z,13.70
2018-06-13T05:51:12.257Z,13.70
2018-06-13T05:53:46.699Z,13.70
2018-06-13T05:56:21.065Z,13.70
2018-06-13T05:58:55.447Z,13.80
2018-06-13T06:01:29.867Z,13.80
2018-06-13T06:04:04.287Z,13.80
2018-06-13T06:06:38.641Z,13.80
2018-06-13T06:09:13.573Z,13.80
2018-06-13T06:11:47.818Z,13.80
2018-06-13T06:14:22.449Z,13.90
2018-06-13T06:16:56.814Z,13.90
2018-06-13T06:19:31.252Z,14.00
2018-06-13T06:22:06.587Z,14.00
2018-06-13T06:24:40.961Z,14.00
2018-06-13T06:27:15.177Z,14.10
2018-06-13T06:29:49.526Z,14.20
2018-06-13T06:32:23.772Z,14.20
2018-06-13T06:34:58.093Z,14.20
2018-06-13T06:37:33.549Z,14.10
2018-06-13T06:42:42.376Z,14.40
2018-06-13T06:45:16.650Z,14.40
2018-06-13T06:47:50.988Z,14.30
2018-06-13T06:50:25.472Z,14.50
2018-06-13T06:52:59.836Z,14.60
2018-06-13T06:55:34.146Z,14.70
2018-06-13T06:58:10.410Z,14.90
2018-06-13T07:00:45.743Z,14.90
2018-06-13T07:03:20.242Z,15.10
2018-06-13T07:05:55.682Z,15.10
2018-06-13T07:08:30.046Z,14.90
2018-06-13T07:11:04.364Z,14.80
2018-06-13T07:13:40.840Z,15.00
2018-06-13T07:16:15.849Z,15.20
2018-06-13T07:18:50.097Z,15.30
2018-06-13T07:21:24.504Z,15.30
2018-06-13T07:23:59.234Z,15.20
2018-06-13T07:26:33.555Z,15.20
2018-06-13T07:29:08.654Z,15.30
2018-06-13T07:31:43.435Z,15.40
2018-06-13T07:34:17.633Z,15.70
2018-06-13T07:36:54.304Z,15.90
2018-06-13T07:39:28.509Z,16.00
2018-06-13T07:42:02.789Z,16.20
2018-06-13T07:44:37.632Z,16.40
2018-06-13T07:47:12.976Z,16.40
2018-06-13T07:49:48.401Z,16.20
2018-06-13T07:52:24.170Z,16.00
2018-06-13T07:54:59.520Z,16.10
2018-06-13T07:57:33.754Z,15.90
2018-06-13T08:00:08.017Z,15.70
2018-06-13T08:02:42.289Z,15.50
2018-06-13T08:05:16.785Z,15.70
2018-06-13T08:07:52.435Z,15.70
2018-06-13T08:10:27.733Z,15.60
2018-06-13T08:13:02.604Z,15.40
2018-06-13T08:15:37.051Z,15.40
2018-06-13T08:18:12.369Z,15.40
2018-06-13T08:20:46.763Z,15.50
2018-06-13T08:23:21.648Z,15.70
2018-06-13T08:25:56.060Z,15.80
2018-06-13T08:28:30.316Z,16.10
2018-06-13T08:31:04.692Z,16.60
2018-06-13T08:33:50.031Z,16.80
2018-06-13T08:36:24.608Z,16.80
2018-06-13T08:38:58.856Z,17.00
2018-06-13T08:41:33.428Z,17.30
2018-06-13T08:44:08.210Z,17.20
2018-06-13T08:46:42.459Z,17.40
2018-06-13T08:49:17.402Z,17.50
2018-06-13T08:51:51.685Z,17.20
2018-06-13T08:54:26.653Z,17.40
2018-06-13T08:57:01.848Z,17.30
2018-06-13T09:02:10.382Z,17.20
2018-06-13T09:04:45.403Z,17.10
2018-06-13T09:07:19.683Z,17.20
2018-06-13T09:09:54.477Z,17.20
2018-06-13T09:12:28.672Z,17.10
2018-06-13T09:15:03.192Z,16.80
2018-06-13T09:17:37.316Z,16.10
2018-06-13T09:20:11.565Z,15.90
2018-06-13T09:22:45.776Z,16.00
2018-06-13T09:25:20.099Z,16.10
2018-06-13T09:27:54.312Z,15.90
2018-06-13T09:30:29.550Z,15.90
2018-06-13T09:33:05.152Z,15.90
2018-06-13T09:35:39.806Z,15.90
2018-06-13T09:38:15.148Z,15.90
2018-06-13T09:40:50.511Z,15.90
2018-06-13T09:46:11.860Z,15.50
2018-06-13T09:48:39.761Z,15.40
2018-06-13T09:53:52.737Z,14.90
2018-06-13T09:56:28.490Z,15.10
2018-06-13T09:59:09.142Z,15.10
2018-06-13T10:02:20.238Z,15.50
2018-06-13T10:04:56.162Z,16.00
2018-06-13T10:07:31.934Z,16.30
2018-06-13T10:10:06.464Z,16.70
2018-06-13T10:15:18.551Z,17.50
2018-06-13T10:17:53.892Z,17.00
2018-06-13T10:20:29.884Z,16.90
2018-06-13T10:23:04.595Z,16.40
2018-06-13T10:25:44.041Z,16.20
2018-06-13T10:28:18.772Z,15.80
2018-06-13T10:30:53.092Z,15.80
2018-06-13T10:33:28.516Z,15.90
2018-06-13T10:36:08.435Z,16.10
2018-06-13T10:41:20.833Z,16.80
2018-06-13T10:43:55.201Z,17.10
2018-06-13T10:46:29.861Z,17.40
2018-06-13T10:49:04.640Z,17.50
2018-06-13T10:51:39.893Z,17.40
2018-06-13T10:54:14.246Z,17.40
2018-06-13T10:56:48.853Z,17.30
2018-06-13T10:59:25.729Z,17.40
2018-06-13T11:01:59.864Z,17.30
2018-06-13T11:04:34.401Z,17.30
2018-06-13T11:07:08.605Z,17.20
2018-06-13T11:09:44.120Z,17.40
2018-06-13T11:12:18.308Z,17.60
2018-06-13T11:14:52.759Z,17.60
2018-06-13T11:17:27.599Z,17.60
2018-06-13T11:20:01.979Z,17.70
2018-06-13T11:22:36.907Z,18.00
2018-06-13T11:25:11.160Z,17.90
2018-06-13T11:27:45.477Z,17.90
2018-06-13T11:30:19.765Z,17.90
2018-06-13T11:32:54.017Z,18.10
2018-06-13T11:35:30.300Z,17.80
2018-06-13T11:38:04.914Z,18.30
2018-06-13T11:40:39.125Z,18.30
2018-06-13T11:43:13.948Z,18.30
2018-06-13T11:45:48.527Z,18.40
2018-06-13T11:48:23.417Z,17.90
2018-06-13T11:50:57.674Z,18.10
2018-06-13T11:53:32.642Z,18.10
2018-06-13T11:56:06.925Z,18.20
2018-06-13T11:58:44.830Z,18.40
2018-06-13T12:01:19.227Z,18.20
2018-06-13T12:03:54.671Z,18.10
2018-06-13T12:06:29.501Z,18.20
2018-06-13T12:09:05.261Z,18.10
2018-06-13T12:11:39.653Z,18.50
2018-06-13T12:14:14.012Z,18.90
2018-06-13T12:16:48.927Z,18.40
2018-06-13T12:19:23.272Z,18.50
2018-06-13T12:21:57.632Z,18.40
2018-06-13T12:24:32.613Z,18.60
2018-06-13T12:27:07.557Z,19.10
2018-06-13T12:29:41.999Z,19.10
2018-06-13T12:32:16.670Z,19.40
2018-06-13T12:34:51.037Z,19.40
2018-06-13T12:37:26.204Z,19.60
2018-06-13T12:40:00.697Z,19.80
2018-06-13T12:42:35.414Z,20.00
2018-06-13T12:45:11.138Z,20.30
2018-06-13T12:47:45.387Z,20.00
2018-06-13T12:50:20.896Z,19.70
2018-06-13T12:52:56.073Z,19.40
2018-06-13T12:55:30.332Z,19.00
2018-06-13T12:58:05.112Z,18.60
2018-06-13T13:00:40.101Z,18.20
2018-06-13T13:03:14.464Z,18.00
2018-06-13T13:05:49.481Z,18.00
2018-06-13T13:08:24.890Z,18.10
2018-06-13T13:10:59.440Z,18.50
2018-06-13T13:13:33.792Z,18.70
2018-06-13T13:16:07.991Z,18.70
2018-06-13T13:18:42.368Z,18.70
2018-06-13T13:21:16.707Z,19.00
2018-06-13T13:23:51.211Z,19.30
2018-06-13T13:26:26.562Z,19.30
2018-06-13T13:29:01.839Z,19.20
2018-06-13T13:31:37.173Z,19.20
2018-06-13T13:34:11.762Z,19.10
2018-06-13T13:36:46.089Z,19.00
2018-06-13T13:39:20.316Z,18.80
2018-06-13T13:41:57.793Z,18.80
2018-06-13T13:44:32.251Z,18.60
2018-06-13T13:47:09.454Z,18.00
2018-06-13T13:49:49.127Z,17.60
2018-06-13T13:52:24.156Z,17.70
2018-06-13T13:55:10.424Z,18.00
2018-06-13T13:57:44.840Z,18.30
2018-06-13T14:00:23.812Z,18.50
2018-06-13T14:02:58.527Z,18.60
2018-06-13T14:05:35.572Z,18.50
2018-06-13T14:08:12.350Z,18.70
2018-06-13T14:10:48.393Z,18.70
2018-06-13T14:13:29.459Z,18.60
2018-06-13T14:16:08.311Z,18.40
2018-06-13T14:18:43.677Z,18.30
2018-06-13T14:24:18.712Z,18.00
2018-06-13T14:26:54.874Z,18.00
2018-06-13T14:29:29.270Z,17.90
2018-06-13T14:32:04.167Z,17.70
2018-06-13T14:34:43.325Z,17.70
2018-06-13T14:37:24.327Z,17.70
2018-06-13T14:39:58.587Z,17.70
2018-06-13T14:42:34.029Z,17.60
2018-06-13T14:45:10.231Z,17.50
2018-06-13T14:47:44.477Z,17.50
2018-06-13T14:50:20.655Z,17.70
2018-06-13T14:52:56.419Z,17.70
2018-06-13T14:55:37.063Z,18.00
2018-06-13T14:58:12.248Z,18.30
2018-06-13T15:00:47.935Z,18.30
2018-06-13T15:03:23.854Z,18.80
2018-06-13T15:05:59.384Z,19.20
2018-06-13T15:08:36.761Z,19.50
2018-06-13T15:11:25.322Z,19.60
2018-06-13T15:14:00.173Z,19.70
2018-06-13T15:16:36.164Z,19.40
2018-06-13T15:21:45.300Z,19.00
2018-06-13T15:24:21.175Z,18.80
2018-06-13T15:26:55.643Z,18.50
2018-06-13T15:29:33.165Z,18.10
2018-06-13T15:32:09.364Z,17.70
2018-06-13T15:34:44.723Z,17.60
2018-06-13T15:37:19.291Z,17.50
2018-06-13T15:39:55.432Z,17.40
2018-06-13T15:42:31.133Z,17.50
2018-06-13T15:45:06.410Z,17.70
2018-06-13T15:47:40.615Z,17.90
2018-06-13T15:50:16.644Z,17.90
2018-06-13T15:52:51.831Z,17.80
2018-06-13T15:55:26.112Z,17.80
2018-06-13T15:58:01.081Z,18.10
2018-06-13T16:00:37.852Z,18.80
2018-06-13T16:03:12.322Z,19.30
2018-06-13T16:05:46.561Z,19.60
2018-06-13T16:10:58.728Z,19.50
2018-06-13T16:13:38.872Z,19.30
2018-06-13T16:16:15.751Z,19.40
2018-06-13T16:18:51.789Z,19.40
2018-06-13T16:21:30.427Z,19.70
2018-06-13T16:24:12.026Z,19.80
2018-06-13T16:26:48.057Z,19.40
2018-06-13T16:29:27.415Z,19.10
2018-06-13T16:32:01.815Z,19.20
2018-06-13T16:34:36.320Z,19.10
2018-06-13T16:37:11.642Z,19.30
2018-06-13T16:39:46.574Z,21.70
2018-06-13T16:42:22.155Z,22.20
2018-06-13T16:44:58.063Z,21.00
2018-06-13T16:47:34.708Z,20.10
2018-06-13T16:50:20.368Z,21.00
2018-06-13T16:53:08.613Z,20.60
2018-06-13T16:55:48.165Z,20.40
2018-06-13T16:58:23.391Z,19.40
2018-06-13T17:00:57.688Z,18.70
2018-06-13T17:03:36.998Z,18.60
2018-06-13T17:06:11.769Z,18.40
2018-06-13T17:11:30.476Z,18.30
2018-06-13T17:14:07.175Z,18.80
2018-06-13T17:16:43.258Z,21.50
2018-06-13T17:19:18.162Z,20.80
2018-06-13T17:28:02.758Z,18.30
2018-06-13T17:39:47.279Z,18.40
2018-06-13T17:42:35.670Z,19.40
2018-06-13T17:45:13.988Z,19.20
2018-06-13T17:51:00.755Z,18.80
2018-06-13T17:53:37.894Z,18.80
2018-06-13T17:56:15.154Z,18.70
2018-06-13T17:58:57.898Z,18.30
2018-06-13T18:01:41.923Z,18.30
2018-06-13T18:07:33.347Z,17.90
2018-06-13T18:10:11.245Z,17.70
2018-06-13T19:25:41.294Z,16.10
2018-06-13T19:40:20.797Z,15.90
2018-06-13T19:42:58.848Z,15.80
2018-06-13T19:45:35.222Z,15.80
2018-06-13T19:48:17.880Z,15.80
2018-06-13T19:54:00.764Z,15.70
2018-06-13T19:59:34.534Z,15.70
2018-06-13T20:02:21.238Z,15.80
2018-06-13T20:05:02.230Z,15.70
2018-06-13T20:07:40.430Z,15.70
2018-06-13T20:10:20.355Z,15.70
2018-06-13T20:26:41.442Z,15.50
2018-06-13T20:29:30.541Z,15.50
2018-06-13T20:32:14.515Z,15.50
2018-06-13T20:34:54.149Z,15.50
2018-06-13T22:02:41.701Z,13.80
2018-06-13T22:05:18.861Z,13.70
2018-06-13T22:10:56.625Z,13.60
2018-06-13T22:13:32.958Z,13.50
2018-06-13T22:19:13.361Z,13.40
2018-06-13T22:24:59.394Z,13.10
2018-06-13T22:27:36.558Z,13.20
2018-06-13T22:30:15.834Z,13.10
2018-06-13T22:32:53.005Z,13.00
2018-06-13T22:35:28.742Z,13.00
2018-06-13T22:40:37.487Z,12.90
2018-06-13T22:43:14.391Z,12.90
2018-06-13T22:45:49.348Z,12.90
2018-06-13T22:48:25.108Z,12.80
2018-06-13T22:50:59.229Z,12.70
2018-06-13T22:53:33.642Z,12.70
2018-06-13T22:56:07.856Z,12.50
2018-06-13T22:58:43.251Z,12.50
2018-06-13T23:01:18.916Z,12.50
2018-06-13T23:06:33.782Z,12.40
2018-06-13T23:09:08.736Z,12.30
2018-06-13T23:11:43.521Z,12.20
2018-06-13T23:14:18.669Z,12.10
2018-06-13T23:16:55.331Z,12.00
2018-06-13T23:19:33.945Z,12.00
2018-06-13T23:22:08.296Z,12.00
2018-06-13T23:24:42.687Z,12.00
2018-06-13T23:27:17.534Z,12.00
2018-06-13T23:29:52.079Z,12.00
2018-06-13T23:32:27.256Z,11.90
2018-06-13T23:35:02.890Z,11.80
2018-06-13T23:37:37.639Z,11.70
2018-06-13T23:40:11.880Z,11.70
2018-06-13T23:42:46.103Z,11.70
2018-06-13T23:45:20.374Z,11.60
2018-06-13T23:47:55.768Z,11.60
2018-06-13T23:50:30.513Z,11.50
2018-06-13T23:53:06.574Z,11.50
2018-06-13T23:55:40.916Z,11.30
2018-06-13T23:58:19.083Z,11.20
